Time;durP1;ratioP1;P1;durP2;ratioP2;P2;SDS_P1;SDS_P2;PMS_P1;PMS_P2;Temp;Humidity;BMP_temperature;BMP_pressure;BME280_temperature;BME280_humidity;BME280_pressure;Samples;Min_cycle;Max_cycle;Signal;HPM_P1;HPM_P2
2022/04/26 03:36:11;;;;;;;15.80;4.55;;;6.80;99.90;;;;;;5034515;28;20080;-67
2022/04/26 03:38:38;;;;;;;7.95;3.72;;;6.80;99.90;;;;;;5017530;28;20366;-67
2022/04/26 03:41:04;;;;;;;9.32;3.60;;;6.80;99.90;;;;;;5033216;28;20056;-67
2022/04/26 03:43:29;;;;;;;13.38;3.90;;;6.80;99.90;;;;;;5037640;28;20470;-67
2022/04/26 03:45:56;;;;;;;12.40;4.47;;;6.80;99.90;;;;;;5039456;28;20531;-67
2022/04/26 03:48:21;;;;;;;13.40;4.03;;;6.80;99.90;;;;;;5027122;28;20079;-67
2022/04/26 03:50:47;;;;;;;10.33;3.93;;;6.80;99.90;;;;;;5042007;28;20474;-67
2022/04/26 03:53:12;;;;;;;12.73;3.90;;;6.70;99.90;;;;;;5039081;28;20421;-67
2022/04/26 03:55:38;;;;;;;11.13;4.20;;;6.70;99.90;;;;;;5037660;28;20102;-67
2022/04/26 03:58:04;;;;;;;14.97;3.67;;;6.70;99.90;;;;;;5023864;28;20232;-66
2022/04/26 04:00:29;;;;;;;11.13;4.23;;;6.70;99.90;;;;;;5022911;28;20071;-67
2022/04/26 04:02:55;;;;;;;9.60;3.60;;;6.70;99.90;;;;;;5036813;28;20057;-67
2022/04/26 04:05:24;;;;;;;12.57;4.20;;;6.70;99.90;;;;;;5019803;28;20033;-67
2022/04/26 04:07:49;;;;;;;10.25;3.47;;;6.70;99.90;;;;;;5019715;28;20033;-67
2022/04/26 04:10:15;;;;;;;14.73;3.50;;;6.70;99.90;;;;;;5041940;28;20047;-67
2022/04/26 04:12:41;;;;;;;13.02;3.78;;;6.60;99.90;;;;;;5041813;28;20314;-67
2022/04/26 04:15:07;;;;;;;8.30;4.07;;;6.60;99.90;;;;;;5044492;28;20135;-67
2022/04/26 04:17:33;;;;;;;8.50;4.60;;;6.60;99.90;;;;;;5040524;28;20498;-67
2022/04/26 04:19:58;;;;;;;16.50;3.47;;;6.70;99.90;;;;;;5034699;28;20042;-66
2022/04/26 04:22:24;;;;;;;9.80;4.73;;;6.60;99.90;;;;;;5041103;28;20033;-67
2022/04/26 04:24:49;;;;;;;12.97;4.17;;;6.60;99.90;;;;;;4995273;28;20280;-67
2022/04/26 04:27:15;;;;;;;9.47;3.70;;;6.60;99.90;;;;;;5032753;28;20060;-66
2022/04/26 04:29:40;;;;;;;8.70;3.63;;;6.60;99.90;;;;;;5015287;28;20033;-67
2022/04/26 04:32:06;;;;;;;7.33;3.73;;;6.60;99.90;;;;;;5028368;28;20044;-66
2022/04/26 04:34:32;;;;;;;12.48;4.32;;;6.60;99.90;;;;;;5020076;28;20037;-66
2022/04/26 04:36:57;;;;;;;8.93;3.67;;;6.60;99.90;;;;;;5041702;28;20416;-67
2022/04/26 04:39:23;;;;;;;9.23;3.37;;;6.70;99.90;;;;;;5034711;28;20060;-66
2022/04/26 04:41:52;;;;;;;13.68;3.63;;;6.70;99.90;;;;;;5040653;28;20115;-67
2022/04/26 04:44:18;;;;;;;9.75;3.35;;;6.70;99.90;;;;;;5043230;28;20048;-66
2022/04/26 04:46:44;;;;;;;11.70;3.53;;;6.70;99.90;;;;;;5019960;28;20122;-66
2022/04/26 04:49:10;;;;;;;8.70;3.28;;;6.80;99.90;;;;;;5043456;28;20438;-67
2022/04/26 04:51:36;;;;;;;9.83;3.43;;;6.80;99.90;;;;;;5039221;28;20157;-67
2022/04/26 04:54:02;;;;;;;14.10;3.65;;;6.80;99.90;;;;;;5040361;28;20120;-66
2022/04/26 04:56:28;;;;;;;10.30;4.20;;;6.90;99.90;;;;;;4999949;28;20041;-66
2022/04/26 04:58:54;;;;;;;11.00;3.30;;;6.90;99.90;;;;;;5016538;28;20060;-67
2022/04/26 05:01:20;;;;;;;9.75;2.92;;;6.90;99.90;;;;;;5034534;28;20513;-66
2022/04/26 05:03:46;;;;;;;13.00;4.03;;;7.00;99.90;;;;;;5017752;28;20363;-66
2022/04/26 05:06:14;;;;;;;6.72;2.85;;;7.00;99.90;;;;;;5038088;28;20044;-67
2022/04/26 05:08:40;;;;;;;8.68;4.10;;;7.00;99.90;;;;;;5043572;28;20040;-67
2022/04/26 05:11:06;;;;;;;11.13;3.50;;;7.00;99.90;;;;;;5022275;28;20450;-67
2022/04/26 05:13:31;;;;;;;8.35;3.42;;;7.10;99.90;;;;;;5016559;28;20063;-68
2022/04/26 05:15:57;;;;;;;11.27;3.30;;;7.10;99.90;;;;;;5035705;28;20489;-67
2022/04/26 05:18:23;;;;;;;9.87;3.30;;;7.10;99.90;;;;;;5010712;28;20037;-67
2022/04/26 05:20:51;;;;;;;8.80;3.58;;;7.10;99.90;;;;;;5030684;28;20122;-66
2022/04/26 05:26:01;;;;;;;11.50;3.47;;;7.20;99.90;;;;;;5030815;28;20045;-68
2022/04/26 05:28:26;;;;;;;10.70;3.23;;;7.20;99.90;;;;;;5031920;28;20044;-67
2022/04/26 05:30:53;;;;;;;5.47;3.00;;;7.20;99.90;;;;;;5032868;28;20433;-67
2022/04/26 05:33:18;;;;;;;13.77;3.47;;;7.30;99.90;;;;;;5020916;28;20094;-67
2022/04/26 05:35:44;;;;;;;10.00;3.77;;;7.30;99.90;;;;;;5036326;28;20037;-69
2022/04/26 05:38:09;;;;;;;10.57;3.13;;;7.40;99.90;;;;;;5039295;28;20232;-66
2022/04/26 05:40:35;;;;;;;8.40;2.67;;;7.40;99.90;;;;;;5037406;28;20484;-69
2022/04/26 05:43:01;;;;;;;7.03;3.45;;;7.50;99.90;;;;;;5047562;28;20402;-67
2022/04/26 05:45:27;;;;;;;7.13;3.37;;;7.50;99.90;;;;;;5033066;28;20048;-69
2022/04/26 05:47:54;;;;;;;8.97;4.07;;;7.60;99.90;;;;;;5026616;28;20040;-71
2022/04/26 05:50:19;;;;;;;11.27;3.20;;;7.60;99.90;;;;;;5047467;28;20102;-72
2022/04/26 05:52:45;;;;;;;10.37;3.97;;;7.70;99.90;;;;;;5037234;28;20107;-71
2022/04/26 05:55:11;;;;;;;10.30;3.70;;;7.70;99.90;;;;;;5011487;28;20051;-73
2022/04/26 05:57:38;;;;;;;13.40;3.20;;;7.80;99.90;;;;;;5018568;28;20041;-69
2022/04/26 06:00:06;;;;;;;10.55;3.53;;;7.90;99.90;;;;;;5022767;28;20377;-71
2022/04/26 06:02:32;;;;;;;16.90;3.55;;;7.80;99.90;;;;;;5036987;28;21290;-68
2022/04/26 06:04:57;;;;;;;10.67;3.67;;;7.90;99.90;;;;;;5038781;28;20116;-71
2022/04/26 06:07:23;;;;;;;8.93;3.37;;;7.90;99.90;;;;;;5032342;28;20033;-68
2022/04/26 06:09:53;;;;;;;7.60;4.20;;;8.00;99.90;;;;;;5019152;28;20201;-69
2022/04/26 06:12:19;;;;;;;10.20;4.40;;;8.10;99.90;;;;;;5040502;28;20413;-66
2022/04/26 06:14:44;;;;;;;9.98;3.30;;;8.10;99.90;;;;;;5036760;28;20064;-66
2022/04/26 06:17:10;;;;;;;7.17;3.20;;;8.20;99.90;;;;;;5039070;28;20060;-66
2022/04/26 06:19:36;;;;;;;7.50;2.90;;;8.30;99.90;;;;;;5017527;28;20033;-66
2022/04/26 06:22:01;;;;;;;12.17;3.43;;;8.30;99.90;;;;;;5039834;28;20477;-66
2022/04/26 06:24:28;;;;;;;8.43;2.90;;;8.30;99.90;;;;;;5018621;28;20033;-71
2022/04/26 06:26:53;;;;;;;8.80;3.78;;;8.30;99.90;;;;;;5023860;28;20366;-70
2022/04/26 06:29:19;;;;;;;10.83;4.27;;;8.30;99.90;;;;;;5041698;28;20056;-67
2022/04/26 06:31:46;;;;;;;10.17;4.03;;;8.40;99.90;;;;;;5038585;28;20021;-65
2022/04/26 06:34:12;;;;;;;6.05;3.30;;;8.40;99.90;;;;;;5030762;28;20073;-66
2022/04/26 06:36:38;;;;;;;9.13;3.50;;;8.50;99.90;;;;;;5029740;28;20069;-65
2022/04/26 06:39:04;;;;;;;10.55;4.10;;;8.50;99.90;;;;;;5037745;28;20045;-68
2022/04/26 06:41:30;;;;;;;9.97;3.80;;;8.50;99.90;;;;;;5043401;28;20052;-66
2022/04/26 06:43:55;;;;;;;8.87;4.10;;;8.60;99.90;;;;;;5013759;28;20249;-66
2022/04/26 06:46:21;;;;;;;7.63;3.90;;;8.60;99.90;;;;;;5041279;28;20295;-66
2022/04/26 06:48:49;;;;;;;12.67;3.93;;;8.60;99.90;;;;;;5042164;28;20450;-67
2022/04/26 06:51:15;;;;;;;10.52;3.25;;;8.60;99.90;;;;;;5026196;28;20080;-66
2022/04/26 06:53:41;;;;;;;12.70;3.97;;;8.60;99.90;;;;;;5037419;28;20040;-66
2022/04/26 06:56:06;;;;;;;10.23;3.47;;;8.60;99.90;;;;;;5030522;28;20055;-66
2022/04/26 06:58:33;;;;;;;12.63;3.67;;;8.70;99.90;;;;;;5020707;28;20419;-67
2022/04/26 07:00:59;;;;;;;;;;;8.70;99.90;;;;;;5024375;28;20063;-67
2022/04/26 07:03:26;;;;;;;6.50;2.83;;;8.80;99.90;;;;;;5030811;28;20273;-66
2022/04/26 07:05:52;;;;;;;9.18;3.00;;;8.90;99.90;;;;;;5049114;28;20060;-67
2022/04/26 07:08:18;;;;;;;7.13;3.00;;;9.00;99.90;;;;;;5034265;28;20163;-66
2022/04/26 07:10:44;;;;;;;9.68;2.67;;;9.10;99.90;;;;;;5045506;28;20083;-66
2022/04/26 07:13:10;;;;;;;7.57;2.67;;;9.20;99.90;;;;;;5046673;28;20422;-67
2022/04/26 07:15:35;;;;;;;7.53;2.73;;;9.20;99.90;;;;;;5027166;28;20045;-67
2022/04/26 07:18:01;;;;;;;11.03;2.63;;;9.20;99.90;;;;;;5026252;28;20051;-68
2022/04/26 07:20:29;;;;;;;5.37;2.63;;;9.20;99.90;;;;;;5026203;28;20099;-68
2022/04/26 07:22:55;;;;;;;7.20;2.53;;;9.20;99.90;;;;;;5042907;28;20053;-68
2022/04/26 07:25:21;;;;;;;8.00;2.73;;;9.20;99.90;;;;;;5006533;28;20045;-68
2022/04/26 07:27:46;;;;;;;5.77;2.20;;;9.20;99.90;;;;;;5017781;28;20078;-67
2022/04/26 07:30:13;;;;;;;5.63;2.30;;;9.30;99.90;;;;;;5015632;28;20867;-67
2022/04/26 07:35:23;;;;;;;7.63;2.72;;;9.40;99.90;;;;;;5037164;28;20045;-67
2022/04/26 07:37:48;;;;;;;6.10;2.43;;;9.50;99.90;;;;;;5039631;28;20055;-67
2022/04/26 07:40:14;;;;;;;10.23;2.80;;;9.50;99.90;;;;;;5041073;28;20061;-67
2022/04/26 07:42:39;;;;;;;5.27;2.13;;;9.60;99.90;;;;;;5035223;28;20036;-67
2022/04/26 07:45:06;;;;;;;6.50;3.00;;;9.50;99.90;;;;;;5011483;28;20228;-68
2022/04/26 07:47:32;;;;;;;5.65;2.70;;;9.50;99.90;;;;;;5044925;28;20140;-65
2022/04/26 07:49:58;;;;;;;7.80;3.20;;;9.40;99.90;;;;;;5017221;28;20127;-66
2022/04/26 07:52:26;;;;;;;9.48;2.90;;;9.40;99.90;;;;;;5039056;28;20040;-70
2022/04/26 07:54:52;;;;;;;7.68;2.38;;;9.40;99.90;;;;;;5031922;28;20076;-66
2022/04/26 07:57:18;;;;;;;4.25;2.40;;;9.30;99.90;;;;;;5028769;28;20155;-66
2022/04/26 07:59:43;;;;;;;6.90;2.37;;;9.30;99.90;;;;;;5036176;28;20043;-65
2022/04/26 08:02:12;;;;;;;5.07;2.30;;;9.30;99.90;;;;;;5039571;28;20444;-66
2022/04/26 08:04:38;;;;;;;6.25;3.08;;;9.30;99.90;;;;;;5037075;28;20041;-66
2022/04/26 08:07:04;;;;;;;9.15;2.50;;;9.40;99.90;;;;;;5044465;28;20079;-65
2022/04/26 08:09:35;;;;;;;6.38;2.58;;;9.60;99.90;;;;;;5032606;28;20079;-65
2022/04/26 08:12:01;;;;;;;5.65;2.45;;;9.80;99.90;;;;;;5039093;28;20037;-66
2022/04/26 08:14:26;;;;;;;6.93;2.50;;;10.00;99.90;;;;;;5039495;28;20044;-66
2022/04/26 08:16:52;;;;;;;10.93;2.30;;;10.20;99.90;;;;;;5045314;22;20133;-65
2022/04/26 08:19:17;;;;;;;4.63;2.47;;;10.30;99.90;;;;;;5006192;28;20223;-65
2022/04/26 08:21:43;;;;;;;7.10;2.67;;;10.40;99.90;;;;;;5009322;28;20042;-67
2022/04/26 08:29:37;;;;;;;9.20;2.35;;;10.80;99.90;;;;;;5014985;28;20041;-65
2022/04/26 08:32:03;;;;;;;9.63;3.10;;;11.00;99.90;;;;;;5023438;28;20056;-65
2022/04/26 08:34:29;;;;;;;7.45;2.72;;;11.10;99.90;;;;;;5024829;28;20049;-65
2022/04/26 08:36:55;;;;;;;8.07;2.30;;;11.30;99.90;;;;;;5015510;28;20041;-66
2022/04/26 08:39:21;;;;;;;6.53;1.90;;;11.50;99.90;;;;;;5019752;28;20091;-65
2022/04/26 08:41:47;;;;;;;12.57;3.70;;;11.60;99.90;;;;;;5019820;28;20412;-65
2022/04/26 08:44:13;;;;;;;3.97;2.42;;;11.70;99.90;;;;;;5022992;28;20284;-65
2022/04/26 08:52:08;;;;;;;8.10;2.33;;;11.90;99.90;;;;;;5016536;28;20513;-66
2022/04/26 08:54:34;;;;;;;4.40;1.80;;;11.90;99.90;;;;;;5010739;28;20037;-66
2022/04/26 08:57:00;;;;;;;5.80;2.78;;;11.80;99.90;;;;;;5022749;28;20041;-66
2022/04/26 08:59:27;;;;;;;5.95;1.73;;;11.70;99.90;;;;;;5012299;28;20281;-66
2022/04/26 09:02:19;;;;;;;4.43;1.50;;;11.60;99.50;;;;;;5018482;28;20077;-66
2022/04/26 09:04:46;;;;;;;7.30;2.15;;;11.50;99.70;;;;;;5023361;28;20561;-66
2022/04/26 09:07:12;;;;;;;;;;;11.40;99.90;;;;;;5016679;28;20401;-66
2022/04/26 09:09:41;;;;;;;6.32;2.03;;;11.40;99.90;;;;;;5015812;28;19917;-66
2022/04/26 09:12:11;;;;;;;5.43;2.10;;;11.50;99.80;;;;;;5024566;28;20041;-66
2022/04/26 09:14:48;;;;;;;4.95;1.73;;;11.50;98.60;;;;;;5005143;28;21027;-66
2022/04/26 09:17:17;;;;;;;8.75;2.08;;;11.40;99.60;;;;;;5013910;28;20045;-66
2022/04/26 09:19:50;;;;;;;3.85;1.88;;;11.40;99.70;;;;;;5024974;28;20549;-66
2022/04/26 09:22:18;;;;;;;3.75;1.70;;;11.40;98.10;;;;;;5020354;28;20041;-66
2022/04/26 09:24:56;;;;;;;5.43;1.88;;;11.40;98.90;;;;;;5009827;28;20517;-66
2022/04/26 09:27:22;;;;;;;7.78;1.90;;;11.30;96.80;;;;;;5019719;28;20076;-66
2022/04/26 09:29:47;;;;;;;3.40;1.58;;;11.20;97.30;;;;;;5016412;28;20124;-66
2022/04/26 09:32:13;;;;;;;5.17;2.10;;;11.20;99.00;;;;;;5028468;28;20048;-66
2022/04/26 09:34:39;;;;;;;6.70;2.13;;;11.30;99.70;;;;;;5023678;28;20043;-66
2022/04/26 09:37:05;;;;;;;5.13;1.90;;;11.50;97.50;;;;;;5018217;28;20049;-65
2022/04/26 09:39:30;;;;;;;7.50;1.88;;;11.60;96.30;;;;;;5009719;28;20509;-66
2022/04/26 09:41:56;;;;;;;9.10;2.03;;;11.70;96.30;;;;;;5018223;28;20041;-66
2022/04/26 09:44:33;;;;;;;3.67;1.63;;;11.80;96.50;;;;;;5016965;28;20554;-66
2022/04/26 09:46:58;;;;;;;7.93;2.72;;;12.00;88.00;;;;;;4985184;28;20394;-65
2022/04/26 09:49:26;;;;;;;4.82;1.80;;;11.80;91.30;;;;;;4990322;28;20041;-66
2022/04/26 09:51:59;;;;;;;4.85;2.00;;;11.70;92.50;;;;;;5022108;28;21395;-66
2022/04/26 09:54:25;;;;;;;7.95;2.33;;;11.60;92.30;;;;;;5013706;28;20422;-66
2022/04/26 09:56:51;;;;;;;7.88;2.35;;;11.50;92.40;;;;;;5022786;28;20041;-66
2022/04/26 09:59:27;;;;;;;5.00;1.67;;;11.60;94.00;;;;;;5027927;28;20080;-66
2022/04/26 10:01:56;;;;;;;5.03;1.87;;;11.70;94.10;;;;;;5029786;28;20691;-66
2022/04/26 10:04:24;;;;;;;5.63;2.15;;;11.90;95.10;;;;;;5010864;28;21004;-66
2022/04/26 10:06:52;;;;;;;5.32;1.92;;;12.10;94.60;;;;;;5020117;28;20496;-66
2022/04/26 10:09:18;;;;;;;6.07;2.13;;;12.30;93.90;;;;;;5021621;28;20044;-66
2022/04/26 10:11:44;;;;;;;8.68;1.85;;;12.40;92.30;;;;;;5020479;28;20124;-66
2022/04/26 10:14:11;;;;;;;4.00;1.73;;;12.40;92.00;;;;;;5027024;28;20560;-66
2022/04/26 10:16:38;;;;;;;4.32;1.98;;;12.60;91.50;;;;;;4991467;28;20080;-66
2022/04/26 10:19:06;;;;;;;4.80;1.88;;;12.70;90.70;;;;;;5025390;28;20038;-66
2022/04/26 10:21:35;;;;;;;4.30;2.05;;;12.70;86.30;;;;;;5004069;28;20102;-66
2022/04/26 10:24:04;;;;;;;7.95;2.60;;;12.80;84.80;;;;;;5020376;28;20029;-66
2022/04/26 10:26:35;;;;;;;6.03;1.98;;;12.80;85.90;;;;;;5018319;28;20544;-66
2022/04/26 10:29:06;;;;;;;8.80;1.85;;;12.90;77.30;;;;;;5019221;28;20112;-66
2022/04/26 10:31:38;;;;;;;5.38;1.90;;;12.90;77.80;;;;;;5027354;28;20644;-67
2022/04/26 10:34:18;;;;;;;6.30;2.67;;;12.80;79.20;;;;;;5033834;28;20045;-67
2022/04/26 10:36:54;;;;;;;5.35;2.08;;;12.70;76.00;;;;;;5029483;28;20049;-65
2022/04/26 10:39:23;;;;;;;9.02;2.15;;;12.90;82.80;;;;;;4992657;28;20046;-66
2022/04/26 10:41:49;;;;;;;6.93;1.73;;;13.10;82.80;;;;;;5020629;28;20050;-66
2022/04/26 10:44:15;;;;;;;4.90;1.95;;;13.30;78.80;;;;;;5025697;28;20522;-66
2022/04/26 10:47:06;;;;;;;4.47;1.60;;;13.30;75.80;;;;;;5011712;28;20041;-66
2022/04/26 10:49:32;;;;;;;6.30;1.90;;;13.30;75.00;;;;;;5025723;28;20049;-66
2022/04/26 10:52:18;;;;;;;3.30;1.70;;;13.40;75.40;;;;;;5023050;28;20406;-66
2022/04/26 10:54:46;;;;;;;6.88;1.90;;;13.30;70.90;;;;;;5013612;28;20113;-66
2022/04/26 10:57:19;;;;;;;2.17;1.45;;;13.30;75.00;;;;;;5014500;28;20046;-66
2022/04/26 10:59:48;;;;;;;5.07;2.00;;;13.30;76.70;;;;;;5018448;28;20041;-66
2022/04/26 11:02:21;;;;;;;6.70;2.20;;;13.20;75.60;;;;;;5024523;28;20114;-66
2022/04/26 11:05:04;;;;;;;7.72;1.70;;;13.10;71.30;;;;;;5025494;28;20075;-65
2022/04/26 11:07:30;;;;;;;3.65;1.80;;;12.90;73.40;;;;;;4999121;28;20041;-66
2022/04/26 11:09:58;;;;;;;4.40;2.20;;;12.90;74.20;;;;;;5021107;28;20053;-66
2022/04/26 11:12:28;;;;;;;4.47;1.67;;;13.00;74.00;;;;;;5022588;28;20395;-66
2022/04/26 11:14:56;;;;;;;4.13;2.08;;;13.10;74.70;;;;;;5025861;28;20045;-66
2022/04/26 11:17:23;;;;;;;5.88;1.77;;;13.20;72.50;;;;;;5027594;28;20129;-66
2022/04/26 11:20:03;;;;;;;5.93;2.20;;;13.10;73.00;;;;;;5025570;28;20103;-66
2022/04/26 11:22:29;;;;;;;6.45;1.85;;;13.30;74.60;;;;;;5023951;28;20379;-66
2022/04/26 11:28:09;;;;;;;3.72;1.67;;;13.40;67.90;;;;;;5017491;28;20509;-66
2022/04/26 11:30:36;;;;;;;4.82;1.55;;;13.10;67.40;;;;;;4997736;28;20048;-68
2022/04/26 11:33:18;;;;;;;5.75;2.08;;;13.20;69.20;;;;;;5017318;28;20347;-68
2022/04/26 11:35:49;;;;;;;3.03;2.00;;;13.30;69.30;;;;;;5011290;28;20041;-68
2022/04/26 11:38:17;;;;;;;4.65;2.03;;;13.40;69.00;;;;;;5019549;28;20537;-68
2022/04/26 11:40:49;;;;;;;8.88;2.00;;;13.40;67.20;;;;;;5025579;28;20049;-68
2022/04/26 11:43:19;;;;;;;3.85;1.70;;;13.50;68.90;;;;;;5023460;28;20494;-68
2022/04/26 11:45:50;;;;;;;5.38;1.80;;;13.50;66.20;;;;;;5025440;28;20060;-68
2022/04/26 11:48:29;;;;;;;5.38;2.00;;;13.50;65.40;;;;;;5000868;28;20037;-68
2022/04/26 11:50:56;;;;;;;4.70;2.10;;;13.60;66.60;;;;;;5027601;28;20045;-68
2022/04/26 11:53:24;;;;;;;3.42;2.00;;;13.70;67.10;;;;;;5028089;28;20052;-68
2022/04/26 11:55:57;;;;;;;6.18;1.67;;;13.90;64.90;;;;;;5002253;28;20138;-68
2022/04/26 11:58:37;;;;;;;5.80;1.92;;;14.10;65.30;;;;;;5008278;28;20037;-68
2022/04/26 12:01:16;;;;;;;6.10;2.00;;;14.10;60.30;;;;;;5018621;28;20040;-68
2022/04/26 12:03:49;;;;;;;5.40;1.95;;;14.10;63.30;;;;;;5006774;28;20129;-68
2022/04/26 12:06:35;;;;;;;5.82;2.00;;;14.20;63.40;;;;;;5017142;28;20066;-68
2022/04/26 12:09:04;;;;;;;5.55;2.05;;;14.30;62.20;;;;;;5018209;28;20069;-68
2022/04/26 12:11:38;;;;;;;5.38;1.50;;;14.30;62.00;;;;;;5022944;28;20124;-68
2022/04/26 12:14:08;;;;;;;6.13;2.80;;;14.20;61.90;;;;;;5006575;28;20037;-68
2022/04/26 12:16:47;;;;;;;5.90;1.80;;;14.10;61.50;;;;;;5023901;28;20045;-68
2022/04/26 12:19:13;;;;;;;4.85;2.00;;;14.20;61.90;;;;;;5025891;28;20490;-68
2022/04/26 12:21:46;;;;;;;;;;;14.50;63.10;;;;;;5027714;28;20100;-68
2022/04/26 12:24:21;;;;;;;7.35;1.98;;;14.70;60.00;;;;;;5022162;28;19926;-68
2022/04/26 12:26:53;;;;;;;7.20;1.90;;;14.60;60.90;;;;;;5034492;28;20501;-68
2022/04/26 12:29:20;;;;;;;7.82;2.10;;;14.40;60.90;;;;;;5020595;28;20050;-68
2022/04/26 12:31:47;;;;;;;;;;;14.30;62.30;;;;;;5007259;28;20034;-68
2022/04/26 12:34:30;;;;;;;6.82;1.55;;;14.40;56.70;;;;;;5019073;28;19963;-68
2022/04/26 12:37:00;;;;;;;4.55;1.67;;;14.50;58.40;;;;;;5021230;28;20038;-68
2022/04/26 12:39:45;;;;;;;4.43;1.48;;;14.60;60.20;;;;;;5021153;28;20033;-68
2022/04/26 12:42:14;;;;;;;5.22;1.88;;;14.80;59.50;;;;;;5017249;28;20044;-68
2022/04/26 12:44:54;;;;;;;6.03;2.28;;;15.10;60.30;;;;;;5027048;28;20056;-68
2022/04/26 12:52:54;;;;;;;5.82;2.25;;;14.80;59.00;;;;;;5028028;28;20085;-68
2022/04/26 12:55:38;;;;;;;5.15;1.98;;;14.70;59.30;;;;;;5005616;28;20489;-68
2022/04/26 12:58:11;;;;;;;6.15;1.80;;;14.80;59.40;;;;;;5011431;28;20034;-68
2022/04/26 13:00:40;;;;;;;8.57;2.22;;;14.90;59.40;;;;;;5005409;28;20164;-68
2022/04/26 13:03:07;;;;;;;6.22;1.90;;;14.90;59.20;;;;;;5023633;28;20074;-68
2022/04/26 13:05:41;;;;;;;5.90;2.30;;;15.10;59.50;;;;;;5029028;28;20041;-68
2022/04/26 13:08:08;;;;;;;4.45;2.15;;;15.20;57.20;;;;;;4995475;28;20030;-68
2022/04/26 13:10:34;;;;;;;3.97;1.92;;;15.20;57.80;;;;;;5008943;28;20422;-68
2022/04/26 13:13:00;;;;;;;3.67;1.77;;;15.20;58.30;;;;;;5025897;28;20033;-68
2022/04/26 13:15:27;;;;;;;4.40;1.90;;;15.30;58.20;;;;;;5026258;28;20045;-68
2022/04/26 13:17:53;;;;;;;2.83;1.70;;;15.40;57.60;;;;;;5023119;28;20068;-68
2022/04/26 13:20:19;;;;;;;3.38;1.75;;;15.40;57.80;;;;;;5006998;28;20052;-68
2022/04/26 13:22:45;;;;;;;5.50;1.95;;;15.20;57.40;;;;;;5017705;28;20037;-68
2022/04/26 13:25:10;;;;;;;5.97;1.80;;;15.20;59.20;;;;;;5003663;28;20421;-68
2022/04/26 13:27:37;;;;;;;4.80;2.00;;;15.30;58.50;;;;;;4991602;28;20294;-68
2022/04/26 13:30:05;;;;;;;3.75;1.95;;;15.10;58.30;;;;;;5012607;28;20041;-68
2022/04/26 13:32:31;;;;;;;5.55;1.90;;;14.90;58.90;;;;;;5024004;28;20352;-68
2022/04/26 13:34:58;;;;;;;4.78;1.92;;;14.80;59.70;;;;;;5025650;28;20300;-68
2022/04/26 13:37:24;;;;;;;4.57;2.25;;;14.80;60.40;;;;;;5019103;28;20611;-68
2022/04/26 13:39:50;;;;;;;5.78;2.00;;;14.70;60.60;;;;;;5016034;28;20141;-68
2022/04/26 13:42:17;;;;;;;6.07;1.55;;;14.70;60.20;;;;;;5024109;28;20384;-68
2022/04/26 13:44:43;;;;;;;;;;;14.70;60.30;;;;;;5002953;28;20038;-68
2022/04/26 13:47:09;;;;;;;4.80;1.67;;;14.80;60.00;;;;;;5017590;28;19921;-68
2022/04/26 13:49:35;;;;;;;10.93;2.30;;;14.80;59.60;;;;;;5014240;28;20041;-68
2022/04/26 13:52:03;;;;;;;5.22;1.85;;;14.60;59.70;;;;;;5022107;28;20498;-68
2022/04/26 13:54:28;;;;;;;8.32;2.40;;;14.40;59.90;;;;;;5010076;28;20470;-68
2022/04/26 13:56:54;;;;;;;5.47;1.90;;;14.30;60.80;;;;;;5011852;28;20128;-68
2022/04/26 13:59:22;;;;;;;14.93;2.13;;;14.20;61.20;;;;;;5012292;28;20604;-68
2022/04/26 14:01:52;;;;;;;4.75;2.42;;;14.10;61.40;;;;;;5020661;28;20046;-68
2022/04/26 14:04:19;;;;;;;7.45;2.45;;;14.10;61.50;;;;;;5017682;28;20066;-67
2022/04/26 14:06:44;;;;;;;;;;;13.90;61.50;;;;;;5020892;28;20042;-69
2022/04/26 14:09:10;;;;;;;6.45;2.03;;;13.90;62.10;;;;;;4995759;28;20344;-65
2022/04/26 14:11:36;;;;;;;12.48;2.70;;;14.00;63.00;;;;;;5018706;28;20052;-65
2022/04/26 14:22:14;;;;;;;6.15;1.70;;;13.50;62.60;;;;;;5033055;28;20409;-69
2022/04/26 14:24:40;;;;;;;14.27;2.60;;;13.30;63.40;;;;;;5039857;28;20045;-68
2022/04/26 14:27:06;;;;;;;6.23;2.87;;;13.30;64.40;;;;;;5010037;28;20121;-68
2022/04/26 14:29:33;;;;;;;5.05;1.85;;;13.30;64.90;;;;;;4987984;28;20125;-69
2022/04/26 14:31:59;;;;;;;4.22;1.88;;;13.20;65.20;;;;;;5003660;28;20081;-69
2022/04/26 14:34:25;;;;;;;6.32;2.22;;;13.30;66.10;;;;;;5019014;28;20089;-68
2022/04/26 14:36:50;;;;;;;4.47;2.10;;;13.30;65.90;;;;;;5013376;28;20071;-69
2022/04/26 14:39:16;;;;;;;2.63;1.80;;;13.00;65.50;;;;;;5015181;28;20029;-70
2022/04/26 14:41:42;;;;;;;6.37;2.70;;;12.90;66.30;;;;;;5015825;28;20077;-69
2022/04/26 14:44:08;;;;;;;6.72;2.00;;;12.90;68.40;;;;;;5014202;28;20072;-69
2022/04/26 14:46:37;;;;;;;4.10;2.00;;;13.10;68.90;;;;;;5023749;28;20037;-68
2022/04/26 14:49:04;;;;;;;3.35;1.73;;;13.30;66.50;;;;;;5021031;28;20331;-69
2022/04/26 14:51:29;;;;;;;6.38;2.15;;;13.40;65.60;;;;;;5002818;28;20116;-69
2022/04/26 14:53:55;;;;;;;5.72;2.28;;;13.60;66.00;;;;;;5022491;28;20136;-70
2022/04/26 14:56:22;;;;;;;5.35;1.83;;;13.80;64.90;;;;;;5000637;28;20405;-68
2022/04/26 14:58:49;;;;;;;6.47;2.47;;;14.00;63.50;;;;;;5011248;28;20049;-68
2022/04/26 15:01:15;;;;;;;6.70;1.85;;;13.90;63.10;;;;;;4995929;28;20231;-68
2022/04/26 15:03:41;;;;;;;6.65;1.95;;;13.90;62.90;;;;;;5014265;28;20489;-70
2022/04/26 15:06:06;;;;;;;5.43;2.40;;;14.00;63.70;;;;;;5015268;28;20079;-69
2022/04/26 15:11:16;;;;;;;3.90;1.80;;;14.10;63.10;;;;;;5023759;28;20401;-70
2022/04/26 15:16:38;;;;;;;3.75;1.50;;;13.80;62.10;;;;;;5025337;28;20292;-69
2022/04/26 15:19:09;;;;;;;9.85;2.60;;;13.60;63.10;;;;;;5019102;28;20096;-68
2022/04/26 15:21:35;;;;;;;5.90;2.53;;;13.70;63.30;;;;;;5005416;28;20057;-68
2022/04/26 15:24:02;;;;;;;5.78;1.90;;;13.70;64.10;;;;;;5015013;28;20251;-68
2022/04/26 15:26:27;;;;;;;4.07;2.00;;;13.70;63.80;;;;;;5003146;28;20044;-69
2022/04/26 15:28:53;;;;;;;3.28;1.73;;;13.70;63.10;;;;;;5016258;28;20041;-69
2022/04/26 15:31:19;;;;;;;6.10;1.88;;;13.60;61.90;;;;;;5021226;28;20545;-69
2022/04/26 15:33:46;;;;;;;4.25;2.30;;;13.60;62.40;;;;;;5014158;28;20042;-68
2022/04/26 15:36:13;;;;;;;4.55;1.70;;;13.50;62.50;;;;;;5022572;28;20042;-69
2022/04/26 15:38:39;;;;;;;;;;;13.50;63.10;;;;;;5012222;28;20056;-67
2022/04/26 15:41:05;;;;;;;8.27;1.90;;;13.40;60.50;;;;;;5005910;28;20389;-68
2022/04/26 15:43:31;;;;;;;;;;;13.40;63.10;;;;;;5019064;28;20130;-68
2022/04/26 15:45:57;;;;;;;4.65;2.30;;;13.40;62.80;;;;;;5023587;28;20003;-68
2022/04/26 15:48:24;;;;;;;5.05;1.85;;;13.50;62.90;;;;;;5017907;28;20104;-68
2022/04/26 15:50:50;;;;;;;6.22;2.10;;;13.40;62.10;;;;;;5024935;28;20069;-68
2022/04/26 15:53:16;;;;;;;5.68;2.13;;;13.20;61.30;;;;;;5011677;28;20637;-69
2022/04/26 15:55:42;;;;;;;7.55;2.65;;;13.10;62.40;;;;;;5005548;28;20671;-70
2022/04/26 15:58:08;;;;;;;4.05;1.85;;;12.90;61.80;;;;;;5017148;28;20037;-70
2022/04/26 16:00:34;;;;;;;7.85;3.05;;;12.80;62.40;;;;;;5004842;28;20033;-70
2022/04/26 16:03:01;;;;;;;7.50;3.67;;;12.70;63.00;;;;;;5001640;28;20143;-69
2022/04/26 16:05:27;;;;;;;4.88;2.30;;;12.70;63.30;;;;;;4987794;28;20046;-68
2022/04/26 16:07:53;;;;;;;6.35;2.10;;;12.90;63.40;;;;;;5018066;28;20516;-70
2022/04/26 16:21:16;;;;;;;4.28;1.80;;;13.50;61.30;;;;;;5017461;28;20045;-69
2022/04/26 16:23:42;;;;;;;8.73;2.38;;;13.50;60.20;;;;;;5014216;28;20056;-69
2022/04/26 16:26:07;;;;;;;5.00;1.98;;;13.40;60.20;;;;;;5012603;28;20040;-70
2022/04/26 16:28:35;;;;;;;8.88;2.28;;;13.30;59.70;;;;;;5021741;28;20041;-69
2022/04/26 16:31:00;;;;;;;5.10;1.80;;;13.10;60.10;;;;;;5007646;28;20033;-70
2022/04/26 16:33:26;;;;;;;5.82;1.63;;;13.10;59.90;;;;;;5011151;28;20037;-70
2022/04/26 16:35:53;;;;;;;7.03;1.88;;;13.00;60.00;;;;;;5021239;28;20505;-69
2022/04/26 16:38:19;;;;;;;4.03;1.58;;;12.80;59.40;;;;;;5024698;28;20061;-70
2022/04/26 16:40:46;;;;;;;5.78;2.08;;;12.60;59.90;;;;;;4982540;28;20469;-69
2022/04/26 16:43:16;;;;;;;4.07;1.83;;;12.60;60.70;;;;;;5016678;28;20045;-69
2022/04/26 16:46:01;;;;;;;8.45;2.30;;;12.40;61.30;;;;;;5013510;28;20070;-69
2022/04/26 16:48:27;;;;;;;3.75;1.48;;;12.30;61.80;;;;;;5020641;28;20117;-69
2022/04/26 16:50:53;;;;;;;6.20;1.83;;;12.20;61.50;;;;;;5013330;28;20041;-69
2022/04/26 16:53:19;;;;;;;7.67;2.53;;;12.00;61.00;;;;;;5023603;28;20102;-71
2022/04/26 16:55:46;;;;;;;5.77;1.60;;;12.00;61.90;;;;;;4997336;28;20067;-69
2022/04/26 16:58:13;;;;;;;5.68;1.50;;;11.90;62.60;;;;;;5013880;28;20449;-68
2022/04/26 17:00:44;;;;;;;5.03;1.65;;;11.80;63.80;;;;;;5013028;28;20081;-69
2022/04/26 17:03:10;;;;;;;5.13;1.70;;;11.80;64.00;;;;;;5019586;28;20088;-70
2022/04/26 17:05:36;;;;;;;6.57;2.03;;;11.60;64.90;;;;;;4997127;28;20033;-70
2022/04/26 17:08:02;;;;;;;4.90;2.20;;;11.60;66.50;;;;;;5010656;28;20080;-69
2022/04/26 17:10:28;;;;;;;5.18;1.77;;;11.60;67.60;;;;;;5002532;28;20127;-70
2022/04/26 17:12:54;;;;;;;7.13;2.05;;;11.60;68.00;;;;;;4999438;28;20045;-70
2022/04/26 17:15:20;;;;;;;4.83;1.47;;;11.60;68.90;;;;;;5010563;28;20500;-70
2022/04/26 17:17:46;;;;;;;6.75;2.20;;;11.60;67.90;;;;;;5015683;28;20037;-70